Time;durP1;ratioP1;P1;durP2;ratioP2;P2;SDS_P1;SDS_P2;PMS_P1;PMS_P2;Temp;Humidity;BMP_temperature;BMP_pressure;BME280_temperature;BME280_humidity;BME280_pressure;Samples;Min_cycle;Max_cycle;Signal;HPM_P1;HPM_P2
2021/01/04 00:00:09;;;;;;;2.07;1.47;;;1.00;99.90;;;;;;5037164;28;20186;-75
2021/01/04 00:03:30;;;;;;;1.20;1.10;;;1.00;99.90;;;;;;5033125;28;20270;-75
2021/01/04 00:06:23;;;;;;;0.93;0.63;;;1.00;99.90;;;;;;5012491;28;20218;-75
2021/01/04 00:09:06;;;;;;;3.80;0.93;;;1.00;99.90;;;;;;5035219;28;20186;-75
2021/01/04 00:11:43;;;;;;;1.43;0.97;;;1.00;99.90;;;;;;5036279;28;20202;-76
2021/01/04 00:14:32;;;;;;;0.80;0.80;;;1.00;99.90;;;;;;5051351;28;20197;-75
2021/01/04 00:17:19;;;;;;;2.07;1.47;;;1.00;99.90;;;;;;5032985;28;20211;-75
2021/01/04 00:20:03;;;;;;;0.83;0.77;;;1.10;99.90;;;;;;5035321;28;20185;-75
2021/01/04 00:22:28;;;;;;;1.20;0.93;;;1.10;99.90;;;;;;5036489;28;20303;-75
2021/01/04 00:25:13;;;;;;;1.17;1.07;;;1.10;99.90;;;;;;5036190;28;20320;-75
2021/01/04 00:27:48;;;;;;;1.50;1.17;;;1.10;99.90;;;;;;5034942;28;20178;-75
2021/01/04 00:30:20;;;;;;;1.27;1.03;;;1.10;99.90;;;;;;5034223;28;20201;-75
2021/01/04 00:32:48;;;;;;;0.60;0.60;;;1.10;99.90;;;;;;5036175;28;20197;-76
2021/01/04 00:35:18;;;;;;;1.07;0.90;;;1.00;99.90;;;;;;5036296;28;20182;-75
2021/01/04 00:38:17;;;;;;;1.53;1.07;;;1.10;99.90;;;;;;5035070;28;20208;-75
2021/01/04 00:41:09;;;;;;;0.87;0.83;;;1.00;99.90;;;;;;5035000;28;20183;-75
2021/01/04 00:43:58;;;;;;;1.47;1.03;;;1.00;99.90;;;;;;5037005;28;20193;-75
2021/01/04 00:46:40;;;;;;;0.80;0.73;;;1.10;99.90;;;;;;5030822;28;20227;-75
2021/01/04 00:49:27;;;;;;;1.23;1.10;;;1.10;99.90;;;;;;5033892;28;20208;-75
2021/01/04 00:52:00;;;;;;;1.10;1.00;;;1.10;99.90;;;;;;5033405;28;21257;-75
2021/01/04 00:54:52;;;;;;;1.17;0.93;;;1.10;99.90;;;;;;5035859;28;20178;-75
2021/01/04 00:57:54;;;;;;;0.90;0.80;;;1.20;99.90;;;;;;5036511;28;20217;-75
2021/01/04 01:00:24;;;;;;;0.70;0.70;;;1.10;99.90;;;;;;5037144;28;20202;-75
2021/01/04 01:03:11;;;;;;;1.93;1.50;;;1.20;99.90;;;;;;5032620;28;20214;-75
2021/01/04 01:06:17;;;;;;;1.00;0.90;;;1.10;99.90;;;;;;5052877;28;20210;-75
2021/01/04 01:08:43;;;;;;;0.53;0.53;;;1.10;99.90;;;;;;5003619;28;20309;-75
2021/01/04 01:11:15;;;;;;;0.87;0.87;;;1.10;99.90;;;;;;5035118;28;20435;-75
2021/01/04 01:13:54;;;;;;;0.80;0.77;;;1.10;99.90;;;;;;5034921;28;20192;-76
2021/01/04 01:16:47;;;;;;;1.27;1.10;;;1.10;99.90;;;;;;5033761;28;20221;-75
2021/01/04 01:19:32;;;;;;;1.47;1.17;;;1.10;99.90;;;;;;5033869;28;20593;-75
2021/01/04 01:21:58;;;;;;;0.60;0.60;;;1.10;99.90;;;;;;5034534;28;20187;-75
2021/01/04 01:24:25;;;;;;;2.00;0.90;;;1.10;99.90;;;;;;5047990;28;20225;-76
2021/01/04 01:27:10;;;;;;;0.70;0.70;;;1.10;99.90;;;;;;5033966;28;20210;-75
2021/01/04 01:30:06;;;;;;;2.17;0.70;;;1.10;99.90;;;;;;5036497;28;20240;-75
2021/01/04 01:32:48;;;;;;;0.73;0.67;;;1.10;99.90;;;;;;5033064;28;20178;-75
2021/01/04 01:35:25;;;;;;;0.70;0.70;;;1.10;99.90;;;;;;5034609;28;20855;-75
2021/01/04 01:38:27;;;;;;;1.30;0.97;;;1.20;99.90;;;;;;5032911;28;20228;-75
2021/01/04 01:41:06;;;;;;;0.60;0.60;;;1.10;99.90;;;;;;5033132;28;20659;-75
2021/01/04 01:43:56;;;;;;;1.80;0.90;;;1.10;99.90;;;;;;5033981;28;20183;-75
2021/01/04 01:46:45;;;;;;;0.87;0.83;;;1.10;99.90;;;;;;5032685;28;20206;-75
2021/01/04 01:49:19;;;;;;;1.10;0.80;;;1.10;99.90;;;;;;5032562;28;20198;-75
2021/01/04 01:51:59;;;;;;;1.27;0.63;;;1.10;99.90;;;;;;5034412;28;20306;-75
2021/01/04 01:55:12;;;;;;;1.97;1.10;;;1.20;99.90;;;;;;5049538;28;20190;-75
2021/01/04 01:57:40;;;;;;;1.03;0.93;;;1.20;99.90;;;;;;5006773;28;20207;-75
2021/01/04 02:00:29;;;;;;;1.13;1.03;;;1.20;99.90;;;;;;5033558;28;20308;-75
2021/01/04 02:03:16;;;;;;;1.00;1.00;;;1.20;99.90;;;;;;5033788;28;20193;-75
2021/01/04 02:06:03;;;;;;;1.10;1.03;;;1.20;99.90;;;;;;5032159;28;20218;-75
2021/01/04 02:08:33;;;;;;;1.50;0.93;;;1.10;99.90;;;;;;5036356;28;20191;-74
2021/01/04 02:11:05;;;;;;;1.83;0.90;;;1.10;99.90;;;;;;5033044;28;20207;-76
2021/01/04 02:14:09;;;;;;;0.53;0.53;;;1.10;99.90;;;;;;5035117;28;20288;-75
2021/01/04 02:16:50;;;;;;;0.47;0.40;;;1.20;99.90;;;;;;5011685;28;20243;-75
2021/01/04 02:19:35;;;;;;;0.23;0.23;;;1.10;99.90;;;;;;5032597;28;20238;-75
2021/01/04 02:22:19;;;;;;;1.23;0.60;;;1.20;99.90;;;;;;5050438;28;20190;-75
2021/01/04 02:24:45;;;;;;;0.80;0.80;;;1.20;99.90;;;;;;5037185;28;20182;-75
2021/01/04 02:27:16;;;;;;;0.47;0.47;;;1.20;99.90;;;;;;5040056;28;20213;-76
2021/01/04 02:29:42;;;;;;;0.60;0.60;;;1.30;99.90;;;;;;5040277;28;20257;-75
2021/01/04 02:32:09;;;;;;;0.87;0.67;;;1.20;99.90;;;;;;5038990;28;20280;-75
2021/01/04 02:34:55;;;;;;;0.60;0.60;;;1.20;99.90;;;;;;5038259;28;20178;-75
2021/01/04 02:37:24;;;;;;;0.60;0.50;;;1.20;99.90;;;;;;5035797;28;20759;-75
2021/01/04 02:39:59;;;;;;;0.97;0.90;;;1.20;99.90;;;;;;5036552;28;20186;-75
2021/01/04 02:42:29;;;;;;;0.80;0.80;;;1.20;99.90;;;;;;5036682;28;20186;-75
2021/01/04 02:44:57;;;;;;;0.50;0.50;;;1.20;99.90;;;;;;5038302;28;20651;-75
2021/01/04 02:47:55;;;;;;;1.10;0.80;;;1.20;99.90;;;;;;5036862;28;20215;-75
2021/01/04 02:50:52;;;;;;;0.70;0.70;;;1.20;99.90;;;;;;5037127;28;20635;-75
2021/01/04 02:53:34;;;;;;;1.07;0.97;;;1.10;99.90;;;;;;5036653;28;20298;-75
2021/01/04 02:56:35;;;;;;;1.33;0.63;;;1.10;99.90;;;;;;5035582;28;20256;-75
2021/01/04 02:59:15;;;;;;;1.47;1.33;;;1.10;99.90;;;;;;5036934;28;20178;-75
2021/01/04 03:02:04;;;;;;;1.27;1.13;;;1.20;99.90;;;;;;5038114;28;20178;-75
2021/01/04 03:04:34;;;;;;;1.43;1.20;;;1.10;99.90;;;;;;5037950;28;20918;-75
2021/01/04 03:07:09;;;;;;;2.20;1.17;;;1.10;99.90;;;;;;5038338;28;20308;-75
2021/01/04 03:09:35;;;;;;;3.33;1.37;;;1.10;99.90;;;;;;5037132;28;20183;-75
2021/01/04 03:12:05;;;;;;;1.43;1.33;;;1.20;99.90;;;;;;5033604;28;20182;-75
2021/01/04 03:14:59;;;;;;;1.90;1.53;;;1.20;99.90;;;;;;5035573;28;20179;-75
2021/01/04 03:17:54;;;;;;;1.10;1.10;;;1.20;99.90;;;;;;5037473;28;20677;-75
2021/01/04 03:20:22;;;;;;;2.33;1.70;;;1.20;99.90;;;;;;5052548;28;20194;-76
2021/01/04 03:22:49;;;;;;;1.87;1.50;;;1.20;99.90;;;;;;5037352;28;20197;-75
2021/01/04 03:25:36;;;;;;;3.73;1.73;;;1.20;99.90;;;;;;5036805;28;20185;-75
2021/01/04 03:28:05;;;;;;;2.07;1.77;;;1.10;99.90;;;;;;5035942;28;20191;-75
2021/01/04 03:30:31;;;;;;;2.23;1.80;;;1.10;99.90;;;;;;5035702;28;20291;-75
2021/01/04 03:32:57;;;;;;;1.97;1.70;;;1.10;99.90;;;;;;5028095;28;20191;-75
2021/01/04 03:35:23;;;;;;;2.50;1.77;;;1.10;99.90;;;;;;5036543;28;20261;-75
2021/01/04 03:37:49;;;;;;;3.33;1.90;;;1.10;99.90;;;;;;5036545;28;20579;-76
2021/01/04 03:40:15;;;;;;;2.97;2.27;;;1.10;99.90;;;;;;5038008;28;20190;-75
2021/01/04 03:42:41;;;;;;;1.77;1.53;;;1.10;99.90;;;;;;5034373;28;20575;-75
2021/01/04 03:45:08;;;;;;;2.27;1.30;;;1.10;99.90;;;;;;5037942;28;20191;-75
2021/01/04 03:47:33;;;;;;;1.93;1.27;;;1.10;99.90;;;;;;5036081;28;20183;-76
2021/01/04 03:50:02;;;;;;;1.80;1.53;;;1.10;99.90;;;;;;5033850;28;20210;-76
2021/01/04 03:52:27;;;;;;;2.17;1.87;;;1.10;99.90;;;;;;5051075;28;20759;-74
2021/01/04 03:54:53;;;;;;;1.93;1.57;;;1.10;99.90;;;;;;5036365;28;20197;-75
2021/01/04 03:57:18;;;;;;;2.27;2.00;;;1.00;99.90;;;;;;5037510;28;20206;-75
2021/01/04 03:59:44;;;;;;;1.37;1.27;;;1.10;99.90;;;;;;5035438;28;20561;-74
2021/01/04 04:02:10;;;;;;;2.27;1.43;;;1.10;99.90;;;;;;5034668;28;20248;-75
2021/01/04 04:04:35;;;;;;;3.13;1.40;;;1.10;99.90;;;;;;5036076;28;20187;-74
2021/01/04 04:07:01;;;;;;;2.53;1.90;;;1.20;99.90;;;;;;5034785;28;20203;-75
2021/01/04 04:09:26;;;;;;;1.90;1.67;;;1.10;99.90;;;;;;5036663;28;20673;-75
2021/01/04 04:11:52;;;;;;;1.50;1.40;;;1.10;99.90;;;;;;5032168;28;20202;-75
2021/01/04 04:14:18;;;;;;;1.03;0.80;;;1.10;99.90;;;;;;5036405;28;20190;-75
2021/01/04 04:16:46;;;;;;;2.30;1.63;;;1.10;99.90;;;;;;5036607;28;20237;-75
2021/01/04 04:19:13;;;;;;;1.43;1.30;;;1.10;99.90;;;;;;5034072;28;20698;-75
2021/01/04 04:21:38;;;;;;;0.97;0.87;;;1.10;99.90;;;;;;5034518;28;20194;-75
2021/01/04 04:24:05;;;;;;;1.40;1.30;;;1.20;99.90;;;;;;5036933;28;20179;-76
2021/01/04 04:26:31;;;;;;;1.20;1.10;;;1.10;99.90;;;;;;5034296;28;20240;-75
2021/01/04 04:28:57;;;;;;;2.40;1.37;;;1.20;99.90;;;;;;5034626;28;20178;-76
2021/01/04 04:31:23;;;;;;;0.77;0.77;;;1.10;99.90;;;;;;5035316;28;20199;-75
2021/01/04 04:33:49;;;;;;;1.57;0.90;;;1.20;99.90;;;;;;5033764;28;20265;-75
2021/01/04 04:36:25;;;;;;;1.67;1.27;;;1.30;99.90;;;;;;5030733;28;20310;-75
2021/01/04 04:38:51;;;;;;;1.47;1.37;;;1.20;99.90;;;;;;5036783;28;20193;-75
2021/01/04 04:41:23;;;;;;;1.53;1.43;;;1.20;99.90;;;;;;5036329;28;20267;-75
2021/01/04 04:43:51;;;;;;;1.93;1.70;;;1.20;99.90;;;;;;5034737;28;20181;-75
2021/01/04 04:46:32;;;;;;;1.33;1.20;;;1.10;99.90;;;;;;5034718;28;20211;-76
2021/01/04 04:49:04;;;;;;;0.87;0.83;;;1.20;99.90;;;;;;5035021;28;20183;-75
2021/01/04 04:51:51;;;;;;;1.20;1.07;;;1.10;99.90;;;;;;5037264;28;20257;-75
2021/01/04 04:54:32;;;;;;;1.27;1.13;;;1.20;99.90;;;;;;5034984;28;20185;-75
2021/01/04 04:57:02;;;;;;;1.10;1.00;;;1.20;99.90;;;;;;5051549;28;20234;-75
2021/01/04 05:00:06;;;;;;;0.90;0.90;;;1.20;99.90;;;;;;5036461;28;20301;-75
2021/01/04 05:03:00;;;;;;;1.37;1.27;;;1.20;99.90;;;;;;5035202;28;20245;-75
2021/01/04 05:05:57;;;;;;;1.40;1.20;;;1.20;99.90;;;;;;5035116;28;20241;-75
2021/01/04 05:08:52;;;;;;;1.67;1.17;;;1.20;99.90;;;;;;5035138;28;20216;-75
2021/01/04 05:11:23;;;;;;;1.07;1.00;;;1.30;99.90;;;;;;5036181;28;20293;-75
2021/01/04 05:13:52;;;;;;;1.50;1.20;;;1.20;99.90;;;;;;5034591;28;20310;-75
2021/01/04 05:16:35;;;;;;;0.83;0.80;;;1.20;99.90;;;;;;5036016;28;20252;-75
2021/01/04 05:19:26;;;;;;;4.00;1.20;;;1.20;99.90;;;;;;5035344;28;20535;-75
2021/01/04 05:22:20;;;;;;;1.37;1.03;;;1.10;99.90;;;;;;5035230;28;20204;-75
2021/01/04 05:25:19;;;;;;;1.00;0.93;;;1.20;99.90;;;;;;5033832;28;20181;-75
2021/01/04 05:27:50;;;;;;;0.90;0.83;;;1.30;99.90;;;;;;5034728;28;20534;-75
2021/01/04 05:30:36;;;;;;;1.23;1.13;;;1.20;99.90;;;;;;5034340;28;20288;-75
2021/01/04 05:33:29;;;;;;;1.30;1.00;;;1.20;99.90;;;;;;5034809;28;20843;-75
2021/01/04 05:36:08;;;;;;;0.70;0.60;;;1.20;99.90;;;;;;5041153;28;20230;-74
2021/01/04 05:38:38;;;;;;;1.03;0.97;;;1.30;99.90;;;;;;5034317;28;20736;-74
2021/01/04 05:41:32;;;;;;;0.63;0.63;;;1.20;99.90;;;;;;5032097;28;20197;-74
2021/01/04 05:43:57;;;;;;;1.43;1.20;;;1.30;99.90;;;;;;5034791;28;20186;-75
2021/01/04 05:46:30;;;;;;;1.60;0.87;;;1.20;99.90;;;;;;5035283;28;20214;-74
2021/01/04 05:49:02;;;;;;;1.00;1.00;;;1.20;99.90;;;;;;5035574;28;20660;-75
2021/01/04 05:51:46;;;;;;;0.90;0.87;;;1.20;99.90;;;;;;5034507;28;20621;-75
2021/01/04 05:54:13;;;;;;;1.10;1.00;;;1.30;99.90;;;;;;5035010;28;20635;-75
2021/01/04 05:56:38;;;;;;;1.50;1.40;;;1.30;99.90;;;;;;5035059;28;20228;-75
2021/01/04 05:59:15;;;;;;;1.07;0.87;;;1.30;99.90;;;;;;5034010;28;20269;-75
2021/01/04 06:01:44;;;;;;;1.33;0.90;;;1.30;99.90;;;;;;5034929;28;20186;-74
2021/01/04 06:04:14;;;;;;;1.67;1.20;;;1.30;99.90;;;;;;5034747;28;20242;-74
2021/01/04 06:07:02;;;;;;;1.20;0.90;;;1.30;99.90;;;;;;5041481;28;20210;-75
2021/01/04 06:09:29;;;;;;;1.83;1.40;;;1.30;99.90;;;;;;5033098;28;20244;-75
2021/01/04 06:12:05;;;;;;;1.17;0.73;;;1.30;99.90;;;;;;5033566;28;20199;-75
2021/01/04 06:14:35;;;;;;;1.70;1.60;;;1.30;99.90;;;;;;5034083;28;20184;-75
2021/01/04 06:17:07;;;;;;;1.47;1.20;;;1.30;99.90;;;;;;5035099;28;20194;-75
2021/01/04 06:19:42;;;;;;;1.53;0.93;;;1.30;99.90;;;;;;5034668;28;20186;-75
2021/01/04 06:22:18;;;;;;;1.77;1.20;;;1.30;99.90;;;;;;5033252;28;20256;-75
2021/01/04 06:24:46;;;;;;;1.27;0.87;;;1.20;99.90;;;;;;5033486;28;20680;-75
2021/01/04 06:27:37;;;;;;;1.00;0.83;;;1.20;99.90;;;;;;5032234;28;20692;-75
2021/01/04 06:30:24;;;;;;;1.40;0.90;;;1.30;99.90;;;;;;5035619;28;20234;-75
2021/01/04 06:32:51;;;;;;;0.90;0.63;;;1.20;99.90;;;;;;5034416;28;20524;-75
2021/01/04 06:35:16;;;;;;;1.17;1.07;;;1.20;99.90;;;;;;5033615;28;20240;-75
2021/01/04 06:37:43;;;;;;;0.90;0.80;;;1.10;99.90;;;;;;5025074;28;20179;-75
2021/01/04 06:40:21;;;;;;;0.60;0.57;;;1.20;99.90;;;;;;5033687;28;20190;-75
2021/01/04 06:42:47;;;;;;;1.03;0.93;;;1.20;99.90;;;;;;5033527;28;20181;-75
2021/01/04 06:45:18;;;;;;;1.53;1.17;;;1.30;99.90;;;;;;5034072;28;20257;-75
2021/01/04 06:48:06;;;;;;;0.50;0.50;;;1.20;99.90;;;;;;5034181;28;20179;-75
2021/01/04 06:50:57;;;;;;;0.97;0.73;;;1.20;99.90;;;;;;5033880;28;20295;-75
2021/01/04 06:53:41;;;;;;;1.33;0.80;;;1.20;99.90;;;;;;5033368;28;20182;-74
2021/01/04 06:56:38;;;;;;;1.13;0.83;;;1.20;99.90;;;;;;5032694;28;20283;-75
2021/01/04 06:59:10;;;;;;;0.40;0.40;;;1.20;99.90;;;;;;5035044;28;20195;-75
2021/01/04 07:01:39;;;;;;;1.07;1.00;;;1.20;99.90;;;;;;5034950;28;20636;-75
2021/01/04 07:04:23;;;;;;;0.93;0.77;;;1.20;99.90;;;;;;5049060;28;20714;-75
2021/01/04 07:07:07;;;;;;;1.37;1.07;;;1.30;99.90;;;;;;5049296;28;20194;-75
2021/01/04 07:09:54;;;;;;;1.20;1.10;;;1.20;99.90;;;;;;5035917;28;20209;-75
2021/01/04 07:12:30;;;;;;;0.97;0.77;;;1.20;99.90;;;;;;5037210;28;20201;-75
2021/01/04 07:14:58;;;;;;;0.53;0.53;;;1.20;99.90;;;;;;5038577;28;20175;-75
2021/01/04 07:17:36;;;;;;;0.80;0.70;;;1.20;99.90;;;;;;5051928;28;20210;-75
2021/01/04 07:20:20;;;;;;;0.63;0.60;;;1.20;99.90;;;;;;5036309;28;20190;-75
2021/01/04 07:23:01;;;;;;;0.53;0.53;;;1.20;99.90;;;;;;5052581;28;20186;-75
2021/01/04 07:25:57;;;;;;;0.87;0.73;;;1.20;99.90;;;;;;5035947;28;20231;-74
2021/01/04 07:28:45;;;;;;;1.23;0.80;;;1.20;99.90;;;;;;5053274;28;20703;-75
2021/01/04 07:31:32;;;;;;;0.93;0.80;;;1.20;99.90;;;;;;5037287;28;20203;-74
2021/01/04 07:34:37;;;;;;;1.33;1.10;;;1.30;99.90;;;;;;5036044;28;20442;-75
2021/01/04 07:37:23;;;;;;;1.40;1.30;;;1.40;99.90;;;;;;4983778;28;20220;-75
2021/01/04 07:40:07;;;;;;;1.67;1.00;;;1.20;99.90;;;;;;5032457;28;20198;-75
2021/01/04 07:43:07;;;;;;;0.73;0.73;;;1.30;99.90;;;;;;5034782;28;20186;-75
2021/01/04 07:46:05;;;;;;;0.60;0.60;;;1.30;99.90;;;;;;5036507;28;20673;-75
2021/01/04 07:48:59;;;;;;;1.27;1.03;;;1.30;99.90;;;;;;5051499;28;20178;-75
2021/01/04 07:51:27;;;;;;;2.50;1.47;;;1.30;99.90;;;;;;5035507;28;20210;-75
2021/01/04 07:54:11;;;;;;;49.53;30.33;;;1.30;99.90;;;;;;5033944;28;20228;-75
2021/01/04 07:56:43;;;;;;;2.77;2.57;;;1.40;99.90;;;;;;5034393;28;20707;-75
2021/01/04 07:59:42;;;;;;;5.23;4.73;;;1.40;99.90;;;;;;5035586;28;20959;-77
2021/01/04 08:02:10;;;;;;;3.87;3.57;;;1.40;99.90;;;;;;5036418;28;20226;-75
2021/01/04 08:04:41;;;;;;;2.07;1.90;;;1.40;99.90;;;;;;5035228;28;20669;-75
2021/01/04 08:07:23;;;;;;;1.87;1.73;;;1.40;99.90;;;;;;5035020;28;20289;-75
2021/01/04 08:09:58;;;;;;;1.67;1.40;;;1.40;99.90;;;;;;5035603;28;20186;-75
2021/01/04 08:12:46;;;;;;;3.60;2.83;;;1.50;99.90;;;;;;5034175;28;20181;-75
2021/01/04 08:15:24;;;;;;;4.27;3.87;;;1.50;99.90;;;;;;5025600;28;20187;-75
2021/01/04 08:17:54;;;;;;;3.07;2.60;;;1.60;99.90;;;;;;5034850;28;20583;-75
2021/01/04 08:20:21;;;;;;;3.37;2.47;;;1.50;99.90;;;;;;5050585;28;20209;-75
2021/01/04 08:23:03;;;;;;;2.30;2.07;;;1.50;99.90;;;;;;5035034;28;20187;-74
2021/01/04 08:25:35;;;;;;;3.17;1.60;;;1.50;99.90;;;;;;5034723;28;20199;-75
2021/01/04 08:28:15;;;;;;;1.10;1.00;;;1.40;99.90;;;;;;5035429;28;20186;-75
2021/01/04 08:31:20;;;;;;;1.43;1.23;;;1.50;99.90;;;;;;5049990;28;20202;-75
2021/01/04 08:33:52;;;;;;;1.07;1.00;;;1.50;99.90;;;;;;5032398;28;20683;-75
2021/01/04 08:36:46;;;;;;;3.83;3.47;;;1.50;99.90;;;;;;5033798;28;20233;-75
2021/01/04 08:39:15;;;;;;;1.47;1.10;;;1.50;99.90;;;;;;5029324;28;20848;-75
2021/01/04 08:41:42;;;;;;;2.30;2.10;;;1.50;99.90;;;;;;5024995;28;20190;-73
2021/01/04 08:44:26;;;;;;;1.20;1.10;;;1.50;99.90;;;;;;5035502;28;20201;-75
2021/01/04 08:46:51;;;;;;;0.50;0.40;;;1.50;99.90;;;;;;5032733;28;20214;-75
2021/01/04 08:49:21;;;;;;;1.10;1.00;;;1.50;99.90;;;;;;5032185;28;20186;-74
2021/01/04 08:51:48;;;;;;;0.57;0.47;;;1.60;99.90;;;;;;5032365;28;20249;-75
2021/01/04 08:54:21;;;;;;;8.27;7.47;;;1.60;99.90;;;;;;5033747;28;20183;-74
2021/01/04 08:56:50;;;;;;;4.13;3.83;;;1.70;99.90;;;;;;5034092;28;21174;-75
2021/01/04 08:59:30;;;;;;;0.90;0.80;;;1.70;99.90;;;;;;5034977;28;20545;-75
2021/01/04 09:01:58;;;;;;;1.80;1.70;;;1.60;99.90;;;;;;5034095;28;20186;-75
2021/01/04 09:04:38;;;;;;;0.57;0.57;;;1.60;99.90;;;;;;5033674;28;20179;-75
2021/01/04 09:07:24;;;;;;;1.50;1.40;;;1.60;99.90;;;;;;5033060;28;20821;-75
2021/01/04 09:10:00;;;;;;;1.40;1.30;;;1.60;99.90;;;;;;5031956;28;20198;-75
2021/01/04 09:12:37;;;;;;;1.80;1.70;;;1.60;99.90;;;;;;5032496;28;20182;-75
2021/01/04 09:15:08;;;;;;;2.03;1.87;;;1.60;99.90;;;;;;5033523;28;20266;-74
2021/01/04 09:17:57;;;;;;;1.67;1.23;;;1.70;99.90;;;;;;5032981;28;20229;-75
2021/01/04 09:20:25;;;;;;;1.57;1.30;;;1.70;99.90;;;;;;5035338;28;20890;-75
2021/01/04 09:23:22;;;;;;;4.87;1.60;;;1.70;99.90;;;;;;5047258;28;20199;-75
2021/01/04 09:25:51;;;;;;;1.00;1.00;;;1.60;99.90;;;;;;5033819;28;20208;-75
2021/01/04 09:28:19;;;;;;;0.87;0.87;;;1.60;99.90;;;;;;5050604;28;20192;-75
2021/01/04 09:30:46;;;;;;;0.73;0.67;;;1.70;99.90;;;;;;5033159;28;20219;-75
2021/01/04 09:33:15;;;;;;;0.70;0.70;;;1.70;99.90;;;;;;5031594;28;20543;-75
2021/01/04 09:35:41;;;;;;;1.13;0.90;;;1.70;99.90;;;;;;5032781;28;20207;-74
2021/01/04 09:38:24;;;;;;;0.60;0.60;;;1.70;99.90;;;;;;5033784;28;20179;-75
2021/01/04 09:40:57;;;;;;;0.80;0.80;;;1.80;99.90;;;;;;5031934;28;20190;-75
2021/01/04 09:43:26;;;;;;;1.40;1.27;;;1.80;99.90;;;;;;5033824;28;20189;-75
2021/01/04 09:45:53;;;;;;;1.00;0.70;;;1.90;99.90;;;;;;5030589;28;20207;-75
2021/01/04 09:48:33;;;;;;;1.67;1.13;;;2.00;99.90;;;;;;5032943;28;20247;-74
2021/01/04 09:51:05;;;;;;;0.60;0.60;;;2.00;99.90;;;;;;5034080;28;20596;-75
2021/01/04 09:53:34;;;;;;;0.50;0.30;;;2.00;99.90;;;;;;5033279;28;20737;-75
2021/01/04 09:56:05;;;;;;;0.80;0.70;;;2.00;99.90;;;;;;5028694;28;20217;-75
2021/01/04 09:58:32;;;;;;;0.60;0.47;;;2.10;99.90;;;;;;5031691;28;20200;-75
2021/01/04 10:01:16;;;;;;;0.67;0.67;;;2.10;99.90;;;;;;5031306;28;20186;-75
2021/01/04 10:03:57;;;;;;;0.53;0.50;;;2.20;99.90;;;;;;5032846;28;20182;-75
2021/01/04 10:06:25;;;;;;;0.60;0.60;;;2.20;99.90;;;;;;5032797;28;20833;-75
2021/01/04 10:08:51;;;;;;;0.80;0.80;;;2.20;99.90;;;;;;5033387;28;20201;-75
2021/01/04 10:11:20;;;;;;;1.00;0.90;;;2.20;99.90;;;;;;5033818;28;20198;-75
2021/01/04 10:13:47;;;;;;;0.50;0.50;;;2.20;99.90;;;;;;5033122;28;20174;-75
2021/01/04 10:16:24;;;;;;;0.77;0.37;;;2.20;99.90;;;;;;5034439;28;20672;-75
2021/01/04 10:18:54;;;;;;;1.00;0.90;;;2.10;99.90;;;;;;5040062;28;20269;-74
2021/01/04 10:21:28;;;;;;;0.53;0.53;;;2.10;99.90;;;;;;5032057;28;20191;-75
2021/01/04 10:24:07;;;;;;;0.60;0.60;;;2.00;99.90;;;;;;5032683;28;20189;-75
2021/01/04 10:26:45;;;;;;;0.60;0.50;;;2.00;99.90;;;;;;5034041;28;20206;-75
2021/01/04 10:29:17;;;;;;;0.43;0.43;;;2.00;99.90;;;;;;5031756;28;20217;-74
2021/01/04 10:31:42;;;;;;;0.50;0.50;;;1.90;99.90;;;;;;5031997;28;20198;-75
2021/01/04 10:34:10;;;;;;;0.40;0.40;;;1.90;99.90;;;;;;5033652;28;20187;-75
2021/01/04 10:36:36;;;;;;;0.40;0.40;;;1.90;99.90;;;;;;5022229;28;20579;-75
2021/01/04 10:39:13;;;;;;;0.40;0.40;;;1.90;99.90;;;;;;5032286;28;20179;-75
2021/01/04 10:41:39;;;;;;;0.50;0.50;;;2.00;99.90;;;;;;5032094;28;20640;-75
2021/01/04 10:44:23;;;;;;;0.63;0.60;;;1.90;99.90;;;;;;5033188;28;20217;-75
2021/01/04 10:47:10;;;;;;;0.80;0.57;;;1.90;99.90;;;;;;5027144;28;20214;-74
2021/01/04 10:49:36;;;;;;;1.30;0.90;;;1.90;99.90;;;;;;5036361;28;20289;-75
2021/01/04 10:52:04;;;;;;;0.70;0.70;;;1.80;99.90;;;;;;5036782;28;20293;-75
2021/01/04 10:54:44;;;;;;;0.37;0.37;;;1.80;99.90;;;;;;5080110;23;20232;-77
2021/01/04 10:57:18;;;;;;;0.50;0.30;;;1.70;99.90;;;;;;5049687;28;20182;-78
2021/01/04 11:00:12;;;;;;;0.77;0.73;;;1.80;99.90;;;;;;5046894;28;20576;-77
2021/01/04 11:02:43;;;;;;;0.50;0.40;;;1.80;99.90;;;;;;5048632;28;20190;-77
2021/01/04 11:05:10;;;;;;;0.50;0.50;;;1.70;99.90;;;;;;5047577;28;20721;-78
2021/01/04 11:07:36;;;;;;;0.20;0.20;;;1.80;99.90;;;;;;5047932;28;20634;-77
2021/01/04 11:10:22;;;;;;;0.40;0.40;;;1.80;99.90;;;;;;5048496;28;20654;-79
2021/01/04 11:12:53;;;;;;;3.23;2.87;;;1.80;99.90;;;;;;5052531;28;20174;-80
2021/01/04 11:15:29;;;;;;;1.77;1.50;;;1.80;99.90;;;;;;5051978;28;20300;-79
2021/01/04 11:18:10;;;;;;;4.63;3.37;;;1.80;99.90;;;;;;5051765;28;20723;-79
2021/01/04 11:20:38;;;;;;;2.57;2.37;;;1.80;99.90;;;;;;5052911;28;20257;-79
2021/01/04 11:23:10;;;;;;;4.07;3.10;;;1.70;99.90;;;;;;5050835;28;20186;-82
2021/01/04 11:25:36;;;;;;;2.87;2.60;;;1.80;99.90;;;;;;5050092;28;20217;-79
2021/01/04 11:28:03;;;;;;;2.57;2.37;;;1.70;99.90;;;;;;5052735;28;20186;-79
2021/01/04 11:30:31;;;;;;;2.93;2.67;;;1.70;99.90;;;;;;5066998;28;20238;-80
2021/01/04 11:33:02;;;;;;;1.30;1.20;;;1.80;99.90;;;;;;5050776;28;21150;-78
2021/01/04 11:35:28;;;;;;;0.93;0.73;;;1.70;99.90;;;;;;5048228;28;20217;-79
2021/01/04 11:37:54;;;;;;;7.10;5.10;;;1.80;99.90;;;;;;5050418;28;20179;-78
2021/01/04 11:40:20;;;;;;;2.93;2.10;;;1.80;99.90;;;;;;5052490;28;20191;-78
2021/01/04 11:42:46;;;;;;;2.80;2.07;;;1.70;99.90;;;;;;5066874;28;20324;-79
2021/01/04 11:45:16;;;;;;;23.37;15.77;;;1.70;99.90;;;;;;5051897;28;20232;-78
2021/01/04 11:47:41;;;;;;;2.17;1.73;;;1.70;99.90;;;;;;5051480;28;20668;-77
2021/01/04 11:50:08;;;;;;;20.07;12.27;;;1.70;99.90;;;;;;5052452;28;20205;-79
2021/01/04 11:52:38;;;;;;;11.87;8.37;;;1.70;99.90;;;;;;5051497;28;21173;-79
2021/01/04 11:55:08;;;;;;;0.93;0.93;;;1.70;99.90;;;;;;5049006;28;20217;-79
2021/01/04 11:57:33;;;;;;;1.33;1.13;;;1.70;99.90;;;;;;5052423;28;20186;-79
2021/01/04 11:59:59;;;;;;;8.17;5.23;;;1.70;99.90;;;;;;5051909;28;20593;-78
2021/01/04 12:02:24;;;;;;;16.40;12.00;;;1.70;99.90;;;;;;5050006;28;20224;-78
2021/01/04 12:04:50;;;;;;;1.07;1.03;;;1.80;99.90;;;;;;5051230;28;20203;-78
2021/01/04 12:07:17;;;;;;;1.50;1.40;;;1.80;99.90;;;;;;5052198;28;20204;-79
2021/01/04 12:09:43;;;;;;;3.53;2.13;;;1.70;99.90;;;;;;5066939;28;20213;-79
2021/01/04 12:12:09;;;;;;;5.63;4.10;;;1.80;99.90;;;;;;5051663;28;21385;-80
2021/01/04 12:14:35;;;;;;;6.10;4.23;;;1.70;99.90;;;;;;5050175;28;20213;-78
2021/01/04 12:17:06;;;;;;;2.33;1.80;;;1.70;99.90;;;;;;5066157;28;21012;-78
2021/01/04 12:19:32;;;;;;;3.93;3.57;;;1.70;99.90;;;;;;5047203;28;20190;-74
2021/01/04 12:22:02;;;;;;;13.17;10.83;;;1.70;99.90;;;;;;5034690;28;20854;-75
2021/01/04 12:24:28;;;;;;;2.20;0.87;;;1.80;99.90;;;;;;5040269;28;20218;-75
2021/01/04 12:26:54;;;;;;;2.17;1.70;;;1.70;99.90;;;;;;5039461;28;20190;-73
2021/01/04 12:29:19;;;;;;;3.60;2.50;;;1.70;99.90;;;;;;5043313;28;20190;-79
2021/01/04 12:31:45;;;;;;;5.70;2.80;;;1.70;99.90;;;;;;5051249;28;20208;-77
2021/01/04 12:34:11;;;;;;;6.47;4.33;;;1.70;99.90;;;;;;5053211;28;20202;-78
2021/01/04 12:36:37;;;;;;;7.00;5.13;;;1.70;99.90;;;;;;5052832;28;20189;-78
2021/01/04 12:39:02;;;;;;;1.27;1.17;;;1.70;99.90;;;;;;5053226;28;20182;-76
2021/01/04 12:41:28;;;;;;;1.10;1.00;;;1.70;99.90;;;;;;5052988;28;20186;-80
2021/01/04 12:43:53;;;;;;;1.13;0.70;;;1.70;99.90;;;;;;5052551;28;20675;-79
2021/01/04 12:46:19;;;;;;;0.50;0.50;;;1.70;99.90;;;;;;5052474;28;20609;-79
2021/01/04 12:48:45;;;;;;;7.50;5.53;;;1.60;99.90;;;;;;5054916;28;20190;-77
2021/01/04 12:51:14;;;;;;;3.77;2.97;;;1.60;99.90;;;;;;5069745;28;20225;-79
2021/01/04 12:53:40;;;;;;;1.37;1.27;;;1.70;99.90;;;;;;5053814;28;20212;-77
2021/01/04 12:56:06;;;;;;;1.43;1.30;;;1.70;99.90;;;;;;5053015;28;20217;-76
2021/01/04 12:58:32;;;;;;;2.33;2.13;;;1.70;99.90;;;;;;5052294;28;20209;-78
2021/01/04 13:00:58;;;;;;;1.47;1.37;;;1.70;99.90;;;;;;5051527;28;20244;-79
2021/01/04 13:03:23;;;;;;;1.50;1.40;;;1.70;99.90;;;;;;5052430;28;20190;-77
2021/01/04 13:05:49;;;;;;;1.13;1.13;;;1.70;99.90;;;;;;5051491;28;20233;-78
2021/01/04 13:08:15;;;;;;;4.47;1.40;;;1.70;99.90;;;;;;5051373;28;20220;-79
2021/01/04 13:10:41;;;;;;;1.40;1.30;;;1.70;99.90;;;;;;5051098;28;20217;-77
2021/01/04 13:13:06;;;;;;;3.40;3.13;;;1.60;99.90;;;;;;5052009;28;20186;-80
2021/01/04 13:15:32;;;;;;;1.17;0.90;;;1.60;99.90;;;;;;5051696;28;20634;-80
2021/01/04 13:17:57;;;;;;;0.80;0.80;;;1.60;99.90;;;;;;5050812;28;20243;-78
2021/01/04 13:20:23;;;;;;;0.87;0.87;;;1.70;99.90;;;;;;5041762;28;20678;-74
2021/01/04 13:22:49;;;;;;;1.40;1.10;;;1.70;99.90;;;;;;5042590;28;20193;-75
2021/01/04 13:25:15;;;;;;;5.20;4.03;;;1.70;99.90;;;;;;5048420;28;20294;-78
2021/01/04 13:27:41;;;;;;;4.73;3.77;;;1.70;99.90;;;;;;5046094;28;20189;-77
2021/01/04 13:30:07;;;;;;;2.73;2.53;;;1.70;99.90;;;;;;5047463;28;20190;-77
2021/01/04 13:32:33;;;;;;;1.83;1.60;;;1.70;99.90;;;;;;5049055;28;20297;-77
2021/01/04 13:34:59;;;;;;;1.20;1.10;;;1.70;99.90;;;;;;5047885;28;20252;-76
2021/01/04 13:37:25;;;;;;;1.27;1.10;;;1.60;99.90;;;;;;5049366;28;20232;-79
2021/01/04 13:39:51;;;;;;;1.77;1.67;;;1.70;99.90;;;;;;5048377;28;20185;-78